sensor_id;sensor_type;location;lat;lon;timestamp;pressure;altitude;pressure_sealevel;temperature;humidity
60212;BME280;46079;48.686;15.598;2023-03-05T00:00:06;99820.78;;;18.66;34.88
60212;BME280;46079;48.686;15.598;2023-03-05T00:02:32;99818.16;;;18.66;34.87
60212;BME280;46079;48.686;15.598;2023-03-05T00:04:57;99823.41;;;18.66;34.99
60212;BME280;46079;48.686;15.598;2023-03-05T00:07:23;99821.75;;;18.65;34.97
60212;BME280;46079;48.686;15.598;2023-03-05T00:09:48;99820.06;;;18.64;35.15
60212;BME280;46079;48.686;15.598;2023-03-05T00:12:14;99820.91;;;18.65;34.81
60212;BME280;46079;48.686;15.598;2023-03-05T00:14:41;99820.06;;;18.64;34.93
60212;BME280;46079;48.686;15.598;2023-03-05T00:17:06;99819.25;;;18.64;34.89
60212;BME280;46079;48.686;15.598;2023-03-05T00:19:32;99813.88;;;18.65;34.86
60212;BME280;46079;48.686;15.598;2023-03-05T00:21:57;99820.91;;;18.65;34.88
60212;BME280;46079;48.686;15.598;2023-03-05T00:24:22;99808.75;;;18.64;34.93
60212;BME280;46079;48.686;15.598;2023-03-05T00:26:48;99814.81;;;18.64;35.06
60212;BME280;46079;48.686;15.598;2023-03-05T00:29:16;99811.38;;;18.64;34.89
60212;BME280;46079;48.686;15.598;2023-03-05T00:31:46;99810.56;;;18.63;34.82
60212;BME280;46079;48.686;15.598;2023-03-05T00:34:15;99799.09;;;18.64;34.85
60212;BME280;46079;48.686;15.598;2023-03-05T00:36:42;99808.75;;;18.64;34.95
60212;BME280;46079;48.686;15.598;2023-03-05T00:39:09;99801.88;;;18.63;35.02
60212;BME280;46079;48.686;15.598;2023-03-05T00:41:34;99801.88;;;18.63;34.78
60212;BME280;46079;48.686;15.598;2023-03-05T00:44:00;99799.25;;;18.63;34.82
60212;BME280;46079;48.686;15.598;2023-03-05T00:46:26;99801.06;;;18.62;34.99
60212;BME280;46079;48.686;15.598;2023-03-05T00:48:52;99792.34;;;18.62;34.89
60212;BME280;46079;48.686;15.598;2023-03-05T00:51:18;99794.94;;;18.62;34.65
60212;BME280;46079;48.686;15.598;2023-03-05T00:53:54;99789.72;;;18.62;34.86
60212;BME280;46079;48.686;15.598;2023-03-05T00:56:19;99789.72;;;18.62;34.90
60212;BME280;46079;48.686;15.598;2023-03-05T00:58:45;99781.03;;;18.61;34.82
60212;BME280;46079;48.686;15.598;2023-03-05T01:01:10;99788.88;;;18.61;34.87
60212;BME280;46079;48.686;15.598;2023-03-05T01:03:36;99781.03;;;18.61;34.89
60212;BME280;46079;48.686;15.598;2023-03-05T01:06:07;99782.00;;;18.60;34.73
60212;BME280;46079;48.686;15.598;2023-03-05T01:08:34;99777.72;;;18.59;34.84
60212;BME280;46079;48.686;15.598;2023-03-05T01:11:00;99771.53;;;18.60;34.66
60212;BME280;46079;48.686;15.598;2023-03-05T01:13:26;99773.31;;;18.60;34.79
60212;BME280;46079;48.686;15.598;2023-03-05T01:15:51;99775.94;;;18.60;34.58
60212;BME280;46079;48.686;15.598;2023-03-05T01:18:18;99769.88;;;18.59;34.61
60212;BME280;46079;48.686;15.598;2023-03-05T01:20:43;99769.88;;;18.59;34.82
60212;BME280;46079;48.686;15.598;2023-03-05T01:23:09;99768.19;;;18.58;34.81
60212;BME280;46079;48.686;15.598;2023-03-05T01:25:35;99762.97;;;18.58;34.81
60212;BME280;46079;48.686;15.598;2023-03-05T01:28:01;99771.78;;;18.57;34.76
60212;BME280;46079;48.686;15.598;2023-03-05T01:30:27;99769.16;;;18.57;34.99
60212;BME280;46079;48.686;15.598;2023-03-05T01:32:52;99768.19;;;18.58;34.77
60212;BME280;46079;48.686;15.598;2023-03-05T01:35:20;99770.00;;;18.58;34.77
60212;BME280;46079;48.686;15.598;2023-03-05T01:37:47;99762.13;;;18.58;34.68
60212;BME280;46079;48.686;15.598;2023-03-05T01:40:16;99766.53;;;18.57;34.72
60212;BME280;46079;48.686;15.598;2023-03-05T01:42:46;99755.25;;;18.57;34.54
60212;BME280;46079;48.686;15.598;2023-03-05T01:45:14;99772.63;;;18.58;34.49
60212;BME280;46079;48.686;15.598;2023-03-05T01:47:40;99760.47;;;18.57;34.49
60212;BME280;46079;48.686;15.598;2023-03-05T01:50:08;99759.63;;;18.56;34.62
60212;BME280;46079;48.686;15.598;2023-03-05T01:52:37;99759.63;;;18.56;34.67
60212;BME280;46079;48.686;15.598;2023-03-05T01:55:15;99757.00;;;18.56;34.51
60212;BME280;46079;48.686;15.598;2023-03-05T01:57:48;99756.06;;;18.57;34.43
60212;BME280;46079;48.686;15.598;2023-03-05T02:00:21;99757.00;;;18.56;34.60
60212;BME280;46079;48.686;15.598;2023-03-05T02:02:50;99754.38;;;18.56;34.63
60212;BME280;46079;48.686;15.598;2023-03-05T02:05:19;99757.16;;;18.55;34.63
60212;BME280;46079;48.686;15.598;2023-03-05T02:07:53;99752.75;;;18.55;34.65
60212;BME280;46079;48.686;15.598;2023-03-05T02:10:21;99760.59;;;18.55;34.54
60212;BME280;46079;48.686;15.598;2023-03-05T02:12:48;99755.34;;;18.55;34.62
60212;BME280;46079;48.686;15.598;2023-03-05T02:15:15;99751.09;;;18.54;34.64
60212;BME280;46079;48.686;15.598;2023-03-05T02:17:40;99751.91;;;18.55;34.61
60212;BME280;46079;48.686;15.598;2023-03-05T02:20:13;99749.41;;;18.53;34.51
60212;BME280;46079;48.686;15.598;2023-03-05T02:22:39;99743.25;;;18.54;34.47
60212;BME280;46079;48.686;15.598;2023-03-05T02:27:43;99740.72;;;18.53;34.71
60212;BME280;46079;48.686;15.598;2023-03-05T02:30:11;99738.00;;;18.54;34.52
60212;BME280;46079;48.686;15.598;2023-03-05T02:32:37;99739.75;;;18.54;34.50
60212;BME280;46079;48.686;15.598;2023-03-05T02:35:03;99727.53;;;18.54;34.48
60212;BME280;46079;48.686;15.598;2023-03-05T02:37:28;99727.53;;;18.54;34.57
60212;BME280;46079;48.686;15.598;2023-03-05T02:39:53;99730.97;;;18.55;34.41
60212;BME280;46079;48.686;15.598;2023-03-05T02:42:19;99727.53;;;18.54;34.55
60212;BME280;46079;48.686;15.598;2023-03-05T02:44:44;99726.53;;;18.55;34.43
60212;BME280;46079;48.686;15.598;2023-03-05T02:47:10;99720.50;;;18.55;34.44
60212;BME280;46079;48.686;15.598;2023-03-05T02:49:35;99707.50;;;18.53;34.50
60212;BME280;46079;48.686;15.598;2023-03-05T02:52:00;99718.81;;;18.54;34.70
60212;BME280;46079;48.686;15.598;2023-03-05T02:54:26;99716.34;;;18.52;34.59
60212;BME280;46079;48.686;15.598;2023-03-05T02:56:51;99714.53;;;18.53;34.63
60212;BME280;46079;48.686;15.598;2023-03-05T02:59:17;99715.50;;;18.52;34.44
60212;BME280;46079;48.686;15.598;2023-03-05T03:01:43;99716.34;;;18.52;34.43
60212;BME280;46079;48.686;15.598;2023-03-05T03:04:08;99717.97;;;18.53;34.28
60212;BME280;46079;48.686;15.598;2023-03-05T03:06:34;99709.31;;;18.53;34.45
60212;BME280;46079;48.686;15.598;2023-03-05T03:08:59;99710.94;;;18.54;34.48
60212;BME280;46079;48.686;15.598;2023-03-05T03:11:24;99708.31;;;18.54;34.43
60212;BME280;46079;48.686;15.598;2023-03-05T03:13:51;99703.09;;;18.54;34.38
60212;BME280;46079;48.686;15.598;2023-03-05T03:16:17;99695.38;;;18.52;34.25
60212;BME280;46079;48.686;15.598;2023-03-05T03:18:42;99690.84;;;18.54;34.38
60212;BME280;46079;48.686;15.598;2023-03-05T03:21:20;99684.75;;;18.54;34.35
60212;BME280;46079;48.686;15.598;2023-03-05T03:23:45;99685.72;;;18.53;34.41
60212;BME280;46079;48.686;15.598;2023-03-05T03:26:11;99693.47;;;18.54;34.33
60212;BME280;46079;48.686;15.598;2023-03-05T03:28:37;99685.72;;;18.53;34.35
60212;BME280;46079;48.686;15.598;2023-03-05T03:31:03;99683.94;;;18.53;34.50
60212;BME280;46079;48.686;15.598;2023-03-05T03:33:28;99683.00;;;18.54;34.50
60212;BME280;46079;48.686;15.598;2023-03-05T03:35:54;99683.00;;;18.54;34.38
60212;BME280;46079;48.686;15.598;2023-03-05T03:38:19;99683.81;;;18.55;34.26
60212;BME280;46079;48.686;15.598;2023-03-05T03:40:45;99683.81;;;18.55;34.49
60212;BME280;46079;48.686;15.598;2023-03-05T03:43:10;99683.81;;;18.55;34.38
60212;BME280;46079;48.686;15.598;2023-03-05T03:45:40;99688.22;;;18.54;34.49
60212;BME280;46079;48.686;15.598;2023-03-05T03:48:05;99689.88;;;18.55;34.31
60212;BME280;46079;48.686;15.598;2023-03-05T03:50:31;99689.88;;;18.55;34.45
60212;BME280;46079;48.686;15.598;2023-03-05T03:52:56;99687.25;;;18.55;34.45
60212;BME280;46079;48.686;15.598;2023-03-05T03:55:21;99690.69;;;18.56;34.28
60212;BME280;46079;48.686;15.598;2023-03-05T03:57:47;99689.88;;;18.55;34.21
60212;BME280;46079;48.686;15.598;2023-03-05T04:00:12;99686.28;;;18.56;34.23
60212;BME280;46079;48.686;15.598;2023-03-05T04:02:38;99688.91;;;18.56;34.36
60212;BME280;46079;48.686;15.598;2023-03-05T04:05:04;99685.47;;;18.56;34.40
60212;BME280;46079;48.686;15.598;2023-03-05T04:07:29;99691.41;;;18.58;34.40
60212;BME280;46079;48.686;15.598;2023-03-05T04:09:55;99693.19;;;18.57;34.30
60212;BME280;46079;48.686;15.598;2023-03-05T04:12:20;99686.28;;;18.56;34.36
60212;BME280;46079;48.686;15.598;2023-03-05T04:14:47;99677.50;;;18.57;34.42
60212;BME280;46079;48.686;15.598;2023-03-05T04:17:14;99680.94;;;18.58;34.36
60212;BME280;46079;48.686;15.598;2023-03-05T04:19:41;99674.72;;;18.59;34.25
60212;BME280;46079;48.686;15.598;2023-03-05T04:22:13;99671.28;;;18.58;34.32
60212;BME280;46079;48.686;15.598;2023-03-05T04:24:40;99672.94;;;18.59;34.18
60212;BME280;46079;48.686;15.598;2023-03-05T04:27:06;99674.59;;;18.60;34.21
60212;BME280;46079;48.686;15.598;2023-03-05T04:29:32;99665.09;;;18.59;34.18
60212;BME280;46079;48.686;15.598;2023-03-05T04:31:58;99665.09;;;18.59;34.33
60212;BME280;46079;48.686;15.598;2023-03-05T04:34:23;99659.84;;;18.59;34.36
60212;BME280;46079;48.686;15.598;2023-03-05T04:36:49;99663.16;;;18.61;34.27
60212;BME280;46079;48.686;15.598;2023-03-05T04:39:14;99670.19;;;18.61;34.17
60212;BME280;46079;48.686;15.598;2023-03-05T04:41:40;99669.22;;;18.62;34.32
60212;BME280;46079;48.686;15.598;2023-03-05T04:44:06;99662.22;;;18.62;34.26
60212;BME280;46079;48.686;15.598;2023-03-05T04:46:31;99658.72;;;18.62;34.27
60212;BME280;46079;48.686;15.598;2023-03-05T04:48:57;99663.84;;;18.63;34.15
60212;BME280;46079;48.686;15.598;2023-03-05T04:51:23;99656.00;;;18.63;34.33
60212;BME280;46079;48.686;15.598;2023-03-05T04:53:48;99655.88;;;18.65;34.32
60212;BME280;46079;48.686;15.598;2023-03-05T04:56:14;99652.41;;;18.64;34.30
60212;BME280;46079;48.686;15.598;2023-03-05T04:58:39;99654.19;;;18.64;34.10
60212;BME280;46079;48.686;15.598;2023-03-05T05:01:05;99660.13;;;18.66;34.25
60212;BME280;46079;48.686;15.598;2023-03-05T05:03:31;99661.94;;;18.65;34.09
60212;BME280;46079;48.686;15.598;2023-03-05T05:06:00;99659.16;;;18.67;34.13
60212;BME280;46079;48.686;15.598;2023-03-05T05:08:26;99653.09;;;18.66;34.18
60212;BME280;46079;48.686;15.598;2023-03-05T05:13:20;99653.00;;;18.68;34.02
60212;BME280;46079;48.686;15.598;2023-03-05T05:15:46;99653.00;;;18.68;34.39
60212;BME280;46079;48.686;15.598;2023-03-05T05:18:11;99651.19;;;18.69;34.02
60212;BME280;46079;48.686;15.598;2023-03-05T05:20:37;99645.94;;;18.69;34.08
60212;BME280;46079;48.686;15.598;2023-03-05T05:23:02;99650.22;;;18.70;34.34
60212;BME280;46079;48.686;15.598;2023-03-05T05:25:28;99652.84;;;18.70;34.26
60212;BME280;46079;48.686;15.598;2023-03-05T05:27:53;99651.91;;;18.71;34.27
60212;BME280;46079;48.686;15.598;2023-03-05T05:30:19;99648.41;;;18.70;34.14
60212;BME280;46079;48.686;15.598;2023-03-05T05:32:44;99648.28;;;18.72;34.32
60212;BME280;46079;48.686;15.598;2023-03-05T05:35:10;99644.03;;;18.71;34.15
60212;BME280;46079;48.686;15.598;2023-03-05T05:37:35;99649.28;;;18.71;34.24
60212;BME280;46079;48.686;15.598;2023-03-05T05:40:01;99659.59;;;18.72;34.07
60212;BME280;46079;48.686;15.598;2023-03-05T05:42:26;99654.38;;;18.72;34.16
60212;BME280;46079;48.686;15.598;2023-03-05T05:44:53;99661.28;;;18.73;34.04
60212;BME280;46079;48.686;15.598;2023-03-05T05:47:19;99661.28;;;18.73;34.23
60212;BME280;46079;48.686;15.598;2023-03-05T05:49:45;99675.91;;;18.76;34.08
60212;BME280;46079;48.686;15.598;2023-03-05T05:52:11;99659.47;;;18.74;34.31
60212;BME280;46079;48.686;15.598;2023-03-05T05:54:38;99651.63;;;18.74;34.22
60212;BME280;46079;48.686;15.598;2023-03-05T05:57:03;99661.03;;;18.76;34.34
60212;BME280;46079;48.686;15.598;2023-03-05T05:59:29;99654.00;;;18.77;34.20
60212;BME280;46079;48.686;15.598;2023-03-05T06:01:54;99650.56;;;18.76;34.25
60212;BME280;46079;48.686;15.598;2023-03-05T06:04:20;99651.38;;;18.77;34.33
60212;BME280;46079;48.686;15.598;2023-03-05T06:06:45;99660.06;;;18.77;34.50
60212;BME280;46079;48.686;15.598;2023-03-05T06:09:11;99663.50;;;18.78;34.05
60212;BME280;46079;48.686;15.598;2023-03-05T06:11:37;99660.88;;;18.78;34.31
60212;BME280;46079;48.686;15.598;2023-03-05T06:14:02;99659.09;;;18.78;34.06
60212;BME280;46079;48.686;15.598;2023-03-05T06:16:28;99662.41;;;18.80;34.13
60212;BME280;46079;48.686;15.598;2023-03-05T06:18:54;99666.00;;;18.79;34.31
60212;BME280;46079;48.686;15.598;2023-03-05T06:21:20;99666.84;;;18.80;34.22
60212;BME280;46079;48.686;15.598;2023-03-05T06:23:47;99668.47;;;18.81;34.08
60212;BME280;46079;48.686;15.598;2023-03-05T06:26:16;99669.34;;;18.81;34.32
60212;BME280;46079;48.686;15.598;2023-03-05T06:28:42;99665.75;;;18.82;34.03
60212;BME280;46079;48.686;15.598;2023-03-05T06:31:11;99661.31;;;18.83;34.13
60212;BME280;46079;48.686;15.598;2023-03-05T06:33:39;99659.69;;;18.82;34.04
60212;BME280;46079;48.686;15.598;2023-03-05T06:36:07;99670.16;;;18.82;34.08
60212;BME280;46079;48.686;15.598;2023-03-05T06:38:34;99661.31;;;18.83;34.20
60212;BME280;46079;48.686;15.598;2023-03-05T06:41:01;99666.56;;;18.83;34.15
60212;BME280;46079;48.686;15.598;2023-03-05T06:43:26;99655.09;;;18.84;34.37
60212;BME280;46079;48.686;15.598;2023-03-05T06:46:06;99654.16;;;18.85;34.26
60212;BME280;46079;48.686;15.598;2023-03-05T06:48:32;99656.78;;;18.85;34.22
60212;BME280;46079;48.686;15.598;2023-03-05T06:50:57;99654.16;;;18.85;34.35
60212;BME280;46079;48.686;15.598;2023-03-05T06:53:24;99659.41;;;18.85;34.21
60212;BME280;46079;48.686;15.598;2023-03-05T06:55:50;99657.59;;;18.85;34.31
60212;BME280;46079;48.686;15.598;2023-03-05T06:58:16;99655.81;;;18.86;34.21
60212;BME280;46079;48.686;15.598;2023-03-05T07:00:42;99660.94;;;18.87;34.36
60212;BME280;46079;48.686;15.598;2023-03-05T07:03:08;99656.63;;;18.86;34.28
60212;BME280;46079;48.686;15.598;2023-03-05T07:05:37;99660.94;;;18.87;34.18
60212;BME280;46079;48.686;15.598;2023-03-05T07:08:06;99656.41;;;18.90;34.21
60212;BME280;46079;48.686;15.598;2023-03-05T07:10:38;99657.22;;;18.90;34.17
60212;BME280;46079;48.686;15.598;2023-03-05T07:13:04;99659.84;;;18.90;34.31
60212;BME280;46079;48.686;15.598;2023-03-05T07:15:29;99660.66;;;18.91;34.26
60212;BME280;46079;48.686;15.598;2023-03-05T07:17:55;99652.78;;;18.91;34.12
60212;BME280;46079;48.686;15.598;2023-03-05T07:20:20;99664.09;;;18.91;34.42
60212;BME280;46079;48.686;15.598;2023-03-05T07:22:46;99654.44;;;18.92;34.37
60212;BME280;46079;48.686;15.598;2023-03-05T07:25:11;99660.50;;;18.92;34.27
60212;BME280;46079;48.686;15.598;2023-03-05T07:27:37;99650.88;;;18.93;34.12
60212;BME280;46079;48.686;15.598;2023-03-05T07:30:03;99659.56;;;18.93;34.50
60212;BME280;46079;48.686;15.598;2023-03-05T07:32:29;99655.97;;;18.94;34.09
60212;BME280;46079;48.686;15.598;2023-03-05T07:34:55;99646.47;;;18.93;34.25
60212;BME280;46079;48.686;15.598;2023-03-05T07:37:20;99650.72;;;18.94;34.32
60212;BME280;46079;48.686;15.598;2023-03-05T07:39:46;99652.41;;;18.95;34.32
60212;BME280;46079;48.686;15.598;2023-03-05T07:42:11;99638.44;;;18.95;34.26
60212;BME280;46079;48.686;15.598;2023-03-05T07:44:36;99647.97;;;18.96;34.22
60212;BME280;46079;48.686;15.598;2023-03-05T07:47:03;99641.75;;;18.97;34.37
60212;BME280;46079;48.686;15.598;2023-03-05T07:49:29;99640.81;;;18.98;34.29
60212;BME280;46079;48.686;15.598;2023-03-05T07:51:54;99644.38;;;18.97;34.46
60212;BME280;46079;48.686;15.598;2023-03-05T07:54:20;99647.84;;;18.97;34.43
60212;BME280;46079;48.686;15.598;2023-03-05T07:56:45;99649.50;;;18.98;34.46
60212;BME280;46079;48.686;15.598;2023-03-05T07:59:11;99639.84;;;18.99;34.37
60212;BME280;46079;48.686;15.598;2023-03-05T08:01:37;99639.03;;;18.98;34.42
60212;BME280;46079;48.686;15.598;2023-03-05T08:04:04;99646.88;;;18.98;34.32
60212;BME280;46079;48.686;15.598;2023-03-05T08:06:30;99635.44;;;18.99;34.35
60212;BME280;46079;48.686;15.598;2023-03-05T08:08:57;99633.78;;;18.98;34.37
60212;BME280;46079;48.686;15.598;2023-03-05T08:11:23;99635.44;;;18.99;34.23
60212;BME280;46079;48.686;15.598;2023-03-05T08:13:49;99633.63;;;19.00;34.41
60212;BME280;46079;48.686;15.598;2023-03-05T08:16:16;99630.19;;;18.99;34.16
60212;BME280;46079;48.686;15.598;2023-03-05T08:18:43;99631.81;;;19.00;34.19
60212;BME280;46079;48.686;15.598;2023-03-05T08:21:20;99626.59;;;19.00;34.37
60212;BME280;46079;48.686;15.598;2023-03-05T08:23:46;99628.25;;;19.01;34.31
60212;BME280;46079;48.686;15.598;2023-03-05T08:26:14;99624.66;;;19.02;34.21
60212;BME280;46079;48.686;15.598;2023-03-05T08:28:39;99624.66;;;19.02;34.44
60212;BME280;46079;48.686;15.598;2023-03-05T08:31:09;99630.72;;;19.03;34.62
60212;BME280;46079;48.686;15.598;2023-03-05T08:33:35;99631.59;;;19.03;34.35
60212;BME280;46079;48.686;15.598;2023-03-05T08:36:00;99624.66;;;19.02;34.26
60212;BME280;46079;48.686;15.598;2023-03-05T08:38:26;99624.66;;;19.02;34.47
60212;BME280;46079;48.686;15.598;2023-03-05T08:40:51;99628.97;;;19.03;34.39
60212;BME280;46079;48.686;15.598;2023-03-05T08:43:17;99625.50;;;19.03;34.27
60212;BME280;46079;48.686;15.598;2023-03-05T08:45:42;99633.22;;;19.04;34.24
60212;BME280;46079;48.686;15.598;2023-03-05T08:48:07;99629.63;;;19.05;34.27
60212;BME280;46079;48.686;15.598;2023-03-05T08:50:35;99624.38;;;19.05;34.45
60212;BME280;46079;48.686;15.598;2023-03-05T08:53:00;99623.56;;;19.05;34.17
60212;BME280;46079;48.686;15.598;2023-03-05T08:55:26;99624.38;;;19.05;34.45
60212;BME280;46079;48.686;15.598;2023-03-05T08:57:51;99622.75;;;19.04;34.45
60212;BME280;46079;48.686;15.598;2023-03-05T09:00:17;99618.31;;;19.05;34.48
60212;BME280;46079;48.686;15.598;2023-03-05T09:02:43;99619.16;;;19.05;34.56
60212;BME280;46079;48.686;15.598;2023-03-05T09:05:08;99619.16;;;19.05;34.51
60212;BME280;46079;48.686;15.598;2023-03-05T09:07:34;99624.38;;;19.05;34.46
60212;BME280;46079;48.686;15.598;2023-03-05T09:09:59;99615.72;;;19.05;34.43
60212;BME280;46079;48.686;15.598;2023-03-05T09:12:25;99619.16;;;19.05;34.59
60212;BME280;46079;48.686;15.598;2023-03-05T09:14:53;99626.06;;;19.06;34.40
60212;BME280;46079;48.686;15.598;2023-03-05T09:17:19;99622.59;;;19.06;34.21
60212;BME280;46079;48.686;15.598;2023-03-05T09:19:44;99611.97;;;19.07;34.30
60212;BME280;46079;48.686;15.598;2023-03-05T09:22:10;99614.59;;;19.07;34.44
60212;BME280;46079;48.686;15.598;2023-03-05T09:24:35;99618.06;;;19.08;34.34
60212;BME280;46079;48.686;15.598;2023-03-05T09:27:01;99617.22;;;19.07;34.41
60212;BME280;46079;48.686;15.598;2023-03-05T09:29:27;99613.63;;;19.08;34.40
60212;BME280;46079;48.686;15.598;2023-03-05T09:31:53;99605.75;;;19.08;34.47
60212;BME280;46079;48.686;15.598;2023-03-05T09:34:18;99601.22;;;19.10;34.38
60212;BME280;46079;48.686;15.598;2023-03-05T09:36:44;99616.13;;;19.10;34.52
60212;BME280;46079;48.686;15.598;2023-03-05T09:39:09;99609.25;;;19.09;34.40
60212;BME280;46079;48.686;15.598;2023-03-05T09:42:55;99605.63;;;19.10;34.32
60212;BME280;46079;48.686;15.598;2023-03-05T09:47:50;99607.28;;;19.11;34.63
60212;BME280;46079;48.686;15.598;2023-03-05T09:50:36;99616.81;;;19.12;34.24
60212;BME280;46079;48.686;15.598;2023-03-05T09:53:20;99604.81;;;19.09;34.53
60212;BME280;46079;48.686;15.598;2023-03-05T09:55:51;99605.53;;;19.12;34.48
60212;BME280;46079;48.686;15.598;2023-03-05T09:58:32;99601.09;;;19.12;34.52
60212;BME280;46079;48.686;15.598;2023-03-05T10:01:09;99592.41;;;19.12;34.38
60212;BME280;46079;48.686;15.598;2023-03-05T10:06:35;99595.84;;;19.12;34.51
60212;BME280;46079;48.686;15.598;2023-03-05T10:11:44;99587.16;;;19.12;34.44
60212;BME280;46079;48.686;15.598;2023-03-05T10:14:17;99588.81;;;19.13;34.37
60212;BME280;46079;48.686;15.598;2023-03-05T10:22:15;99578.31;;;19.13;34.52
60212;BME280;46079;48.686;15.598;2023-03-05T10:27:19;99570.47;;;19.13;34.35
60212;BME280;46079;48.686;15.598;2023-03-05T10:44:43;99560.66;;;19.15;34.71
60212;BME280;46079;48.686;15.598;2023-03-05T10:46:49;99553.75;;;19.14;34.46
60212;BME280;46079;48.686;15.598;2023-03-05T10:49:29;99558.16;;;19.13;34.60
60212;BME280;46079;48.686;15.598;2023-03-05T10:52:19;99542.44;;;19.13;34.55
60212;BME280;46079;48.686;15.598;2023-03-05T10:54:46;99544.09;;;19.14;34.72
60212;BME280;46079;48.686;15.598;2023-03-05T10:57:26;99538.03;;;19.14;34.45
60212;BME280;46079;48.686;15.598;2023-03-05T11:02:31;99534.44;;;19.15;34.49
60212;BME280;46079;48.686;15.598;2023-03-05T11:04:57;99527.53;;;19.14;34.55
60212;BME280;46079;48.686;15.598;2023-03-05T11:10:21;99530.84;;;19.16;34.69
60212;BME280;46079;48.686;15.598;2023-03-05T11:12:47;99523.97;;;19.15;34.49
60212;BME280;46079;48.686;15.598;2023-03-05T11:15:24;99516.09;;;19.15;34.63
60212;BME280;46079;48.686;15.598;2023-03-05T11:18:16;99513.47;;;19.15;34.42
60212;BME280;46079;48.686;15.598;2023-03-05T11:20:42;99517.88;;;19.14;34.48
60212;BME280;46079;48.686;15.598;2023-03-05T11:23:17;99512.63;;;19.14;34.28
60212;BME280;46079;48.686;15.598;2023-03-05T11:26:00;99508.25;;;19.15;34.42
60212;BME280;46079;48.686;15.598;2023-03-05T11:28:28;99495.13;;;19.15;34.50
60212;BME280;46079;48.686;15.598;2023-03-05T11:31:41;99494.28;;;19.14;34.61
60212;BME280;46079;48.686;15.598;2023-03-05T11:34:03;99496.06;;;19.14;34.48
60212;BME280;46079;48.686;15.598;2023-03-05T11:36:40;99498.69;;;19.14;34.52
60212;BME280;46079;48.686;15.598;2023-03-05T11:41:48;99482.03;;;19.15;34.52
60212;BME280;46079;48.686;15.598;2023-03-05T11:44:20;99478.53;;;19.14;34.61
60212;BME280;46079;48.686;15.598;2023-03-05T11:46:47;99481.16;;;19.14;34.18
60212;BME280;46079;48.686;15.598;2023-03-05T11:49:18;99477.72;;;19.14;34.58
60212;BME280;46079;48.686;15.598;2023-03-05T11:54:25;99469.84;;;19.14;34.79
60212;BME280;46079;48.686;15.598;2023-03-05T11:56:53;99474.16;;;19.15;34.63
60212;BME280;46079;48.686;15.598;2023-03-05T11:59:23;99477.72;;;19.14;34.66
60212;BME280;46079;48.686;15.598;2023-03-05T12:01:53;99476.09;;;19.13;34.66
60212;BME280;46079;48.686;15.598;2023-03-05T12:04:20;99471.81;;;19.12;34.71
60212;BME280;46079;48.686;15.598;2023-03-05T12:06:57;99475.09;;;19.14;34.59
60212;BME280;46079;48.686;15.598;2023-03-05T12:09:40;99469.03;;;19.13;34.42
60212;BME280;46079;48.686;15.598;2023-03-05T12:21:14;99475.25;;;19.12;34.30
60212;BME280;46079;48.686;15.598;2023-03-05T12:23:55;99467.41;;;19.12;34.50
60212;BME280;46079;48.686;15.598;2023-03-05T12:34:57;99471.81;;;19.12;34.49
60212;BME280;46079;48.686;15.598;2023-03-05T12:40:20;99463.25;;;19.09;34.57
60212;BME280;46079;48.686;15.598;2023-03-05T12:48:32;99466.81;;;19.08;34.72
60212;BME280;46079;48.686;15.598;2023-03-05T12:53:14;99458.97;;;19.08;34.44
60212;BME280;46079;48.686;15.598;2023-03-05T13:03:32;99446.84;;;19.07;34.60
60212;BME280;46079;48.686;15.598;2023-03-05T13:05:59;99444.22;;;19.07;34.68
60212;BME280;46079;48.686;15.598;2023-03-05T13:08:32;99449.47;;;19.07;34.57
60212;BME280;46079;48.686;15.598;2023-03-05T13:11:05;99442.56;;;19.06;34.68
60212;BME280;46079;48.686;15.598;2023-03-05T13:13:35;99450.44;;;19.06;34.97
60212;BME280;46079;48.686;15.598;2023-03-05T13:16:01;99450.44;;;19.06;34.69
60212;BME280;46079;48.686;15.598;2023-03-05T13:18:29;99454.69;;;19.07;34.78
60212;BME280;46079;48.686;15.598;2023-03-05T13:21:03;99458.28;;;19.06;34.71
60212;BME280;46079;48.686;15.598;2023-03-05T13:23:29;99459.13;;;19.07;34.66
60212;BME280;46079;48.686;15.598;2023-03-05T13:26:12;99452.06;;;19.07;34.57
60212;BME280;46079;48.686;15.598;2023-03-05T13:28:44;99449.47;;;19.07;34.64
60212;BME280;46079;48.686;15.598;2023-03-05T13:31:19;99446.00;;;19.07;34.73
60212;BME280;46079;48.686;15.598;2023-03-05T13:33:52;99447.81;;;19.06;34.48
60212;BME280;46079;48.686;15.598;2023-03-05T13:36:21;99453.06;;;19.06;34.71
60212;BME280;46079;48.686;15.598;2023-03-05T13:38:48;99454.69;;;19.07;34.82
60212;BME280;46079;48.686;15.598;2023-03-05T13:46:33;99443.53;;;19.05;34.56
60212;BME280;46079;48.686;15.598;2023-03-05T13:51:46;99441.88;;;19.04;34.62
60212;BME280;46079;48.686;15.598;2023-03-05T13:54:16;99437.47;;;19.05;34.46
60212;BME280;46079;48.686;15.598;2023-03-05T13:56:50;99432.22;;;19.05;34.53
60212;BME280;46079;48.686;15.598;2023-03-05T13:59:19;99427.94;;;19.04;34.88
60212;BME280;46079;48.686;15.598;2023-03-05T14:01:46;99430.56;;;19.04;34.60
60212;BME280;46079;48.686;15.598;2023-03-05T14:04:19;99427.94;;;19.04;34.52
60212;BME280;46079;48.686;15.598;2023-03-05T14:06:47;99427.13;;;19.03;34.75
60212;BME280;46079;48.686;15.598;2023-03-05T14:12:37;99421.88;;;19.03;34.54
60212;BME280;46079;48.686;15.598;2023-03-05T14:17:47;99410.53;;;19.03;34.61
60212;BME280;46079;48.686;15.598;2023-03-05T14:20:18;99401.88;;;19.02;34.63
60212;BME280;46079;48.686;15.598;2023-03-05T14:22:48;99399.25;;;19.02;34.60
60212;BME280;46079;48.686;15.598;2023-03-05T14:25:43;99400.06;;;19.03;34.30
60212;BME280;46079;48.686;15.598;2023-03-05T14:30:46;99402.84;;;19.01;34.54
60212;BME280;46079;48.686;15.598;2023-03-05T14:33:13;99407.09;;;19.02;34.61